createdAt,value
2022-11-11T00:00:51.388Z,5.68
2022-11-11T00:01:51.412Z,5.83
2022-11-11T00:02:51.428Z,5.64
2022-11-11T00:03:51.377Z,5.73
2022-11-11T00:04:51.366Z,5.66
2022-11-11T00:05:51.374Z,5.75
2022-11-11T00:06:51.409Z,5.72
2022-11-11T00:07:51.332Z,5.73
2022-11-11T00:08:51.320Z,5.66
2022-11-11T00:09:51.319Z,5.59
2022-11-11T00:10:51.320Z,5.65
2022-11-11T00:11:51.414Z,5.59
2022-11-11T00:12:51.294Z,5.59
2022-11-11T00:13:51.302Z,5.61
2022-11-11T00:14:51.276Z,5.71
2022-11-11T00:15:51.268Z,5.64
2022-11-11T00:16:51.298Z,5.62
2022-11-11T00:17:51.301Z,5.66
2022-11-11T00:18:51.287Z,5.65
2022-11-11T00:19:51.277Z,5.66
2022-11-11T00:20:51.274Z,5.54
2022-11-11T00:21:51.257Z,5.64
2022-11-11T00:22:51.240Z,5.59
2022-11-11T00:23:51.221Z,5.50
2022-11-11T00:24:51.255Z,5.54
2022-11-11T00:25:51.333Z,5.51
2022-11-11T00:26:51.253Z,5.54
2022-11-11T00:27:51.258Z,5.50
2022-11-11T00:28:51.206Z,5.51
2022-11-11T00:29:51.203Z,5.62
2022-11-11T00:30:51.174Z,5.51
2022-11-11T00:31:51.221Z,5.59
2022-11-11T00:32:51.137Z,5.51
2022-11-11T00:33:51.137Z,5.51
2022-11-11T00:34:51.175Z,5.57
2022-11-11T00:35:51.116Z,5.48
2022-11-11T00:36:51.202Z,5.51
2022-11-11T00:37:51.155Z,5.50
2022-11-11T00:38:51.121Z,5.46
2022-11-11T00:39:51.086Z,5.32
2022-11-11T00:40:51.077Z,5.39
2022-11-11T00:41:51.148Z,5.41
2022-11-11T00:42:51.126Z,5.38
2022-11-11T00:43:51.126Z,5.35
2022-11-11T00:44:51.076Z,5.28
2022-11-11T00:45:51.114Z,5.23
2022-11-11T00:46:51.060Z,5.29
2022-11-11T00:47:51.028Z,5.33
2022-11-11T00:48:51.075Z,5.21
2022-11-11T00:49:51.004Z,5.23
2022-11-11T00:50:51.066Z,5.28
2022-11-11T00:51:51.018Z,5.21
2022-11-11T00:52:50.984Z,5.29
2022-11-11T00:53:51.037Z,5.25
2022-11-11T00:54:51.002Z,5.20
2022-11-11T00:55:51.014Z,5.20
2022-11-11T00:56:51.011Z,5.08
2022-11-11T00:57:50.990Z,5.23
2022-11-11T00:58:50.991Z,5.15
2022-11-11T00:59:51.112Z,5.10
2022-11-11T01:00:50.933Z,5.08
2022-11-11T01:01:51.073Z,5.10
2022-11-11T01:02:50.950Z,5.15
2022-11-11T01:03:50.931Z,5.04
2022-11-11T01:04:50.951Z,5.00
2022-11-11T01:05:50.905Z,4.99
2022-11-11T01:06:51.098Z,4.97
2022-11-11T01:07:50.992Z,5.07
2022-11-11T01:08:50.945Z,5.02
2022-11-11T01:09:50.875Z,4.97
2022-11-11T01:10:50.869Z,4.96
2022-11-11T01:11:50.952Z,4.92
2022-11-11T01:12:50.849Z,4.90
2022-11-11T01:13:50.874Z,5.04
2022-11-11T01:14:50.889Z,4.94
2022-11-11T01:15:51.063Z,4.92
2022-11-11T01:16:50.834Z,5.05
2022-11-11T01:17:50.797Z,5.02
2022-11-11T01:18:50.817Z,5.02
2022-11-11T01:19:50.889Z,5.00
2022-11-11T01:20:50.785Z,4.94
2022-11-11T01:21:50.812Z,4.92
2022-11-11T01:22:50.828Z,4.87
2022-11-11T01:23:51.896Z,4.75
2022-11-11T01:24:50.753Z,4.73
2022-11-11T01:25:50.738Z,4.73
2022-11-11T01:26:50.776Z,4.68
2022-11-11T01:27:50.785Z,4.60
2022-11-11T01:28:50.726Z,4.55
2022-11-11T01:29:50.702Z,4.45
2022-11-11T01:30:50.809Z,4.55
2022-11-11T01:31:50.829Z,4.66
2022-11-11T01:32:50.801Z,4.60
2022-11-11T01:33:50.720Z,4.66
2022-11-11T01:34:50.674Z,4.75
2022-11-11T01:35:50.771Z,4.71
2022-11-11T01:36:50.787Z,4.63
2022-11-11T01:37:50.693Z,4.70
2022-11-11T01:38:50.646Z,4.55
2022-11-11T01:39:50.630Z,4.67
2022-11-11T01:40:50.778Z,4.68
2022-11-11T01:41:50.687Z,4.60
2022-11-11T01:42:50.641Z,4.63
2022-11-11T01:43:50.619Z,4.68
2022-11-11T01:44:50.608Z,4.55
2022-11-11T01:45:50.677Z,4.62
2022-11-11T01:46:50.597Z,4.56
2022-11-11T01:48:16.611Z,4.66
2022-11-11T01:48:52.572Z,4.60
2022-11-11T01:49:50.657Z,4.52
2022-11-11T01:50:50.544Z,4.49
2022-11-11T01:51:50.689Z,4.59
2022-11-11T01:52:50.564Z,4.49
2022-11-11T01:53:50.565Z,4.59
2022-11-11T01:54:50.611Z,4.63
2022-11-11T01:55:50.648Z,4.63
2022-11-11T01:56:50.503Z,4.68
2022-11-11T01:57:50.670Z,4.56
2022-11-11T01:58:50.488Z,4.53
2022-11-11T01:59:50.664Z,4.62
2022-11-11T02:00:50.595Z,4.58
2022-11-11T02:01:50.555Z,4.55
2022-11-11T02:02:50.739Z,4.55
2022-11-11T02:03:50.652Z,4.50
2022-11-11T02:04:50.614Z,4.58
2022-11-11T02:05:50.607Z,4.55
2022-11-11T02:06:50.504Z,4.56
2022-11-11T02:07:50.503Z,4.68
2022-11-11T02:08:50.526Z,4.53
2022-11-11T02:09:50.398Z,4.56
2022-11-11T02:10:50.429Z,4.50
2022-11-11T02:11:50.523Z,4.45
2022-11-11T02:12:50.551Z,4.52
2022-11-11T02:13:50.379Z,4.56
2022-11-11T02:14:50.519Z,4.48
2022-11-11T02:15:50.365Z,4.48
2022-11-11T02:16:50.456Z,4.50
2022-11-11T02:17:50.471Z,4.49
2022-11-11T02:18:50.382Z,4.50
2022-11-11T02:19:50.491Z,4.53
2022-11-11T02:20:50.449Z,4.49
2022-11-11T02:21:50.466Z,4.34
2022-11-11T02:22:50.335Z,4.37
2022-11-11T02:23:50.307Z,4.37
2022-11-11T02:24:50.455Z,4.35
2022-11-11T02:25:50.377Z,4.28
2022-11-11T02:26:54.196Z,4.22
2022-11-11T02:27:52.420Z,4.26
2022-11-11T02:28:50.296Z,4.26
2022-11-11T02:29:50.285Z,4.22
2022-11-11T02:30:50.252Z,4.23
2022-11-11T02:31:50.230Z,4.28
2022-11-11T02:32:50.353Z,4.16
2022-11-11T02:33:50.278Z,4.22
2022-11-11T02:34:50.341Z,4.22
2022-11-11T02:35:50.433Z,4.16
2022-11-11T02:36:50.308Z,4.30
2022-11-11T02:37:50.329Z,4.22
2022-11-11T02:38:50.219Z,4.22
2022-11-11T02:40:03.150Z,4.20
2022-11-11T02:40:52.286Z,4.20
2022-11-11T02:41:50.161Z,4.23
2022-11-11T02:42:50.321Z,4.20
2022-11-11T02:43:50.226Z,4.24
2022-11-11T02:44:50.356Z,4.38
2022-11-11T02:45:50.202Z,4.30
2022-11-11T02:46:50.307Z,4.30
2022-11-11T02:47:50.231Z,4.32
2022-11-11T02:48:50.138Z,4.24
2022-11-11T02:49:50.136Z,4.23
2022-11-11T02:50:50.151Z,4.24
2022-11-11T02:51:51.151Z,4.22
2022-11-11T02:52:50.115Z,4.19
2022-11-11T02:53:50.205Z,4.19
2022-11-11T02:54:50.082Z,4.19
2022-11-11T02:55:50.093Z,4.23
2022-11-11T02:56:50.088Z,4.16
2022-11-11T02:57:50.249Z,4.12
2022-11-11T02:58:50.065Z,4.05
2022-11-11T02:59:50.073Z,4.05
2022-11-11T03:00:50.081Z,4.02
2022-11-11T03:01:50.063Z,3.99
2022-11-11T03:02:50.105Z,3.94
2022-11-11T03:03:50.008Z,4.05
2022-11-11T03:04:49.987Z,4.13
2022-11-11T03:05:50.172Z,4.06
2022-11-11T03:06:50.106Z,3.95
2022-11-11T03:07:50.133Z,4.08
2022-11-11T03:08:50.154Z,4.02
2022-11-11T03:09:50.196Z,4.02
2022-11-11T03:10:49.982Z,4.01
2022-11-11T03:11:50.113Z,3.99
2022-11-11T03:12:49.916Z,3.96
2022-11-11T03:13:50.134Z,3.94
2022-11-11T03:14:50.048Z,3.91
2022-11-11T03:15:49.892Z,4.06
2022-11-11T03:16:50.039Z,3.96
2022-11-11T03:17:50.070Z,3.92
2022-11-11T03:18:50.127Z,3.98
2022-11-11T03:19:49.864Z,4.04
2022-11-11T03:20:49.859Z,4.01
2022-11-11T03:22:55.008Z,4.06
2022-11-11T03:23:50.953Z,3.91
2022-11-11T03:24:49.839Z,4.04
2022-11-11T03:25:52.155Z,3.99
2022-11-11T03:26:49.806Z,4.02
2022-11-11T03:27:49.810Z,4.13
2022-11-11T03:28:49.825Z,4.04
2022-11-11T03:29:49.789Z,4.05
2022-11-11T03:30:49.786Z,4.01
2022-11-11T03:31:49.794Z,4.04
2022-11-11T03:32:49.769Z,4.08
2022-11-11T03:33:49.803Z,4.10
2022-11-11T03:34:49.769Z,4.02
2022-11-11T03:35:49.771Z,4.06
2022-11-11T03:36:49.748Z,4.01
2022-11-11T03:37:49.739Z,3.92
2022-11-11T03:38:49.756Z,3.87
2022-11-11T03:39:49.793Z,4.04
2022-11-11T03:40:49.715Z,4.01
2022-11-11T03:41:49.706Z,4.04
2022-11-11T03:42:49.703Z,3.91
2022-11-11T03:43:49.699Z,3.86
2022-11-11T03:44:49.711Z,3.95
2022-11-11T03:45:49.680Z,3.91
2022-11-11T03:46:49.667Z,4.01
2022-11-11T03:47:50.531Z,3.91
2022-11-11T03:48:49.651Z,3.81
2022-11-11T03:49:49.684Z,3.87
2022-11-11T03:50:49.680Z,3.88
2022-11-11T03:51:49.629Z,3.92
2022-11-11T03:52:49.617Z,3.96
2022-11-11T03:53:49.611Z,3.87
2022-11-11T03:54:49.635Z,3.94
2022-11-11T03:55:49.674Z,3.83
2022-11-11T03:56:49.593Z,3.78
2022-11-11T03:57:49.595Z,3.88
2022-11-11T03:58:49.577Z,3.77
2022-11-11T03:59:49.609Z,3.77
2022-11-11T04:00:49.564Z,3.70
2022-11-11T04:01:49.583Z,3.74
2022-11-11T04:02:49.553Z,3.77
2022-11-11T04:03:49.545Z,3.74
2022-11-11T04:04:49.564Z,3.80
2022-11-11T04:05:49.532Z,3.77
2022-11-11T04:06:49.580Z,3.69
2022-11-11T04:07:49.518Z,3.66
2022-11-11T04:08:49.515Z,3.66
2022-11-11T04:09:49.530Z,3.70
2022-11-11T04:10:49.498Z,3.66
2022-11-11T04:11:49.559Z,3.68
2022-11-11T04:12:49.479Z,3.68
2022-11-11T04:13:49.465Z,3.73
2022-11-11T04:14:49.484Z,3.76
2022-11-11T04:15:49.461Z,3.73
2022-11-11T04:16:49.446Z,3.73
2022-11-11T04:17:49.430Z,3.70
2022-11-11T04:18:49.425Z,3.68
2022-11-11T04:19:49.439Z,3.65
2022-11-11T04:20:49.412Z,3.70
2022-11-11T04:21:49.408Z,3.76
2022-11-11T04:22:49.395Z,3.62
2022-11-11T04:23:49.403Z,3.69
2022-11-11T04:24:49.399Z,3.76
2022-11-11T04:25:49.374Z,3.81
2022-11-11T04:26:49.364Z,3.66
2022-11-11T04:27:49.435Z,3.63
2022-11-11T04:28:49.353Z,3.73
2022-11-11T04:29:49.377Z,3.66
2022-11-11T04:30:49.338Z,3.63
2022-11-11T04:31:49.327Z,3.65
2022-11-11T04:32:49.324Z,3.62
2022-11-11T04:33:49.354Z,3.66
2022-11-11T04:34:49.375Z,3.69
2022-11-11T04:35:49.303Z,3.73
2022-11-11T04:36:49.298Z,3.68
2022-11-11T04:37:49.282Z,3.78
2022-11-11T04:38:49.291Z,3.69
2022-11-11T04:39:49.302Z,3.80
2022-11-11T04:40:49.258Z,3.68
2022-11-11T04:42:14.363Z,3.73
2022-11-11T04:42:51.330Z,3.73
2022-11-11T04:43:49.251Z,3.70
2022-11-11T04:44:49.256Z,3.74
2022-11-11T04:45:49.244Z,3.74
2022-11-11T04:46:49.236Z,3.78
2022-11-11T04:47:49.214Z,3.68
2022-11-11T04:48:49.199Z,3.63
2022-11-11T04:49:49.240Z,3.63
2022-11-11T04:50:49.202Z,3.47
2022-11-11T04:51:49.183Z,3.65
2022-11-11T04:52:49.171Z,3.62
2022-11-11T04:53:49.163Z,3.59
2022-11-11T04:54:49.230Z,3.58
2022-11-11T04:55:49.150Z,3.45
2022-11-11T04:56:49.150Z,3.58
2022-11-11T04:57:49.130Z,3.50
2022-11-11T04:58:49.209Z,3.45
2022-11-11T04:59:49.147Z,3.53
2022-11-11T05:00:49.139Z,3.51
2022-11-11T05:01:49.108Z,3.47
2022-11-11T05:02:49.097Z,3.53
2022-11-11T05:03:49.089Z,3.56
2022-11-11T05:04:49.118Z,3.51
2022-11-11T05:05:49.098Z,3.50
2022-11-11T05:06:49.109Z,3.55
2022-11-11T05:07:49.059Z,3.53
2022-11-11T05:08:49.048Z,3.45
2022-11-11T05:09:49.074Z,3.55
2022-11-11T05:10:49.031Z,3.42
2022-11-11T05:11:49.034Z,3.48
2022-11-11T05:12:49.016Z,3.41
2022-11-11T05:13:49.000Z,3.55
2022-11-11T05:14:49.093Z,3.47
2022-11-11T05:15:48.989Z,3.51
2022-11-11T05:16:49.011Z,3.51
2022-11-11T05:17:48.978Z,3.51
2022-11-11T05:18:48.962Z,3.48
2022-11-11T05:19:48.982Z,3.50
2022-11-11T05:20:48.964Z,3.48
2022-11-11T05:21:48.946Z,3.50
2022-11-11T05:22:48.924Z,3.51
2022-11-11T05:23:49.927Z,3.40
2022-11-11T05:24:48.953Z,3.45
2022-11-11T05:25:48.924Z,3.50
2022-11-11T05:26:48.898Z,3.50
2022-11-11T05:27:48.896Z,3.48
2022-11-11T05:28:48.915Z,3.56
2022-11-11T05:29:48.879Z,3.56
2022-11-11T05:30:48.942Z,3.53
2022-11-11T05:31:51.473Z,3.56
2022-11-11T05:32:49.857Z,3.47
2022-11-11T05:33:48.843Z,3.47
2022-11-11T05:34:48.874Z,3.50
2022-11-11T05:35:48.837Z,3.47
2022-11-11T05:36:48.824Z,3.50
2022-11-11T05:37:48.814Z,3.48
2022-11-11T05:38:48.829Z,3.50
2022-11-11T05:39:48.804Z,3.50
2022-11-11T05:40:48.793Z,3.51
2022-11-11T05:41:48.784Z,3.59
2022-11-11T05:42:54.179Z,3.51
2022-11-11T05:43:50.792Z,3.40
2022-11-11T05:44:48.753Z,3.47
2022-11-11T05:45:48.747Z,3.48
2022-11-11T05:46:48.822Z,3.44
2022-11-11T05:47:48.746Z,3.45
2022-11-11T05:48:48.767Z,3.45
2022-11-11T05:49:48.729Z,3.58
2022-11-11T05:50:48.721Z,3.51
2022-11-11T05:51:48.694Z,3.51
2022-11-11T05:52:49.693Z,3.47
2022-11-11T05:53:48.714Z,3.51
2022-11-11T05:54:48.684Z,3.45
2022-11-11T05:55:48.682Z,3.58
2022-11-11T05:56:48.665Z,3.53
2022-11-11T05:57:48.657Z,3.48
2022-11-11T05:58:50.706Z,3.48
2022-11-11T05:59:49.646Z,3.51
2022-11-11T06:00:48.634Z,3.42
2022-11-11T06:01:48.731Z,3.41
2022-11-11T06:02:48.697Z,3.45
2022-11-11T06:03:48.640Z,3.47
2022-11-11T06:04:48.605Z,3.48
2022-11-11T06:05:48.604Z,3.44
2022-11-11T06:06:48.625Z,3.48
2022-11-11T06:07:48.589Z,3.41
2022-11-11T06:08:48.611Z,3.45
2022-11-11T06:09:48.573Z,3.45
2022-11-11T06:10:48.565Z,3.42
2022-11-11T06:11:48.567Z,3.47
2022-11-11T06:12:48.548Z,3.44
2022-11-11T06:13:48.580Z,3.42
2022-11-11T06:14:48.539Z,3.31
2022-11-11T06:15:48.527Z,3.36
2022-11-11T06:16:48.523Z,3.40
2022-11-11T06:17:48.528Z,3.36
2022-11-11T06:18:48.604Z,3.31
2022-11-11T06:19:48.500Z,3.41
2022-11-11T06:20:48.494Z,3.42
2022-11-11T06:21:48.492Z,3.42
2022-11-11T06:22:48.473Z,3.41
2022-11-11T06:23:48.500Z,3.41
2022-11-11T06:24:48.461Z,3.44
2022-11-11T06:25:48.461Z,3.45
2022-11-11T06:26:48.462Z,3.41
2022-11-11T06:27:48.461Z,3.42
2022-11-11T06:28:48.431Z,3.44
2022-11-11T06:29:48.421Z,3.42
2022-11-11T06:30:50.940Z,3.44
2022-11-11T06:31:49.412Z,3.42
2022-11-11T06:32:48.430Z,3.41
2022-11-11T06:33:48.444Z,3.47
2022-11-11T06:34:48.500Z,3.40
2022-11-11T06:35:48.380Z,3.37
2022-11-11T06:36:48.388Z,3.36
2022-11-11T06:37:48.389Z,3.41
2022-11-11T06:38:48.372Z,3.50
2022-11-11T06:39:48.423Z,3.36
2022-11-11T06:40:48.339Z,3.28
2022-11-11T06:41:48.337Z,3.37
2022-11-11T06:42:48.348Z,3.47
2022-11-11T06:43:48.315Z,3.44
2022-11-11T06:44:48.309Z,3.47
2022-11-11T06:45:48.303Z,3.45
2022-11-11T06:46:48.296Z,3.48
2022-11-11T06:47:48.310Z,3.50
2022-11-11T06:48:48.276Z,3.48
2022-11-11T06:49:48.272Z,3.59
2022-11-11T06:50:48.337Z,3.53
2022-11-11T06:51:48.266Z,3.53
2022-11-11T06:52:48.288Z,3.59
2022-11-11T06:53:48.241Z,3.60
2022-11-11T06:54:48.255Z,3.63
2022-11-11T06:55:48.223Z,3.69
2022-11-11T06:56:48.216Z,3.63
2022-11-11T06:57:48.234Z,3.63
2022-11-11T06:58:48.199Z,3.65
2022-11-11T06:59:48.204Z,3.70
2022-11-11T07:00:48.305Z,3.65
2022-11-11T07:01:48.262Z,3.69
2022-11-11T07:02:48.189Z,3.73
2022-11-11T07:03:48.161Z,3.66
2022-11-11T07:04:48.145Z,3.68
2022-11-11T07:05:49.157Z,3.70
2022-11-11T07:06:48.222Z,3.63
2022-11-11T07:07:48.156Z,3.69
2022-11-11T07:08:48.126Z,3.66
2022-11-11T07:09:48.114Z,3.69
2022-11-11T07:10:48.103Z,3.73
2022-11-11T07:11:48.094Z,3.68
2022-11-11T07:12:48.113Z,3.68
2022-11-11T07:13:48.080Z,3.78
2022-11-11T07:14:48.077Z,3.70
2022-11-11T07:15:48.072Z,3.83
2022-11-11T07:16:48.060Z,3.80
2022-11-11T07:17:48.080Z,3.87
2022-11-11T07:18:48.044Z,3.80
2022-11-11T07:19:48.082Z,3.94
2022-11-11T07:20:48.024Z,3.95
2022-11-11T07:21:48.026Z,3.88
2022-11-11T07:22:48.115Z,3.88
2022-11-11T07:23:48.010Z,3.92
2022-11-11T07:24:48.001Z,3.96
2022-11-11T07:25:47.998Z,3.94
2022-11-11T07:26:47.991Z,3.92
2022-11-11T07:27:48.013Z,3.96
2022-11-11T07:28:47.968Z,3.96
2022-11-11T07:29:47.986Z,3.99
2022-11-11T07:30:47.959Z,3.99
2022-11-11T07:31:47.974Z,3.98
2022-11-11T07:32:47.968Z,3.91
2022-11-11T07:33:47.932Z,4.01
2022-11-11T07:34:47.920Z,3.98
2022-11-11T07:35:47.916Z,4.01
2022-11-11T07:36:47.919Z,4.01
2022-11-11T07:37:47.921Z,4.10
2022-11-11T07:38:47.968Z,4.14
2022-11-11T07:39:47.896Z,4.28
2022-11-11T07:40:47.876Z,4.31
2022-11-11T07:41:47.872Z,4.28
2022-11-11T07:42:47.901Z,4.32
2022-11-11T07:43:47.859Z,4.28
2022-11-11T07:44:49.481Z,4.31
2022-11-11T07:45:48.841Z,4.37
2022-11-11T07:46:47.860Z,4.37
2022-11-11T07:47:47.846Z,4.34
2022-11-11T07:48:47.817Z,4.45
2022-11-11T07:49:47.813Z,4.37
2022-11-11T07:50:47.795Z,4.32
2022-11-11T07:51:47.790Z,4.40
2022-11-11T07:52:47.811Z,4.40
2022-11-11T07:53:47.780Z,4.37
2022-11-11T07:54:47.839Z,4.44
2022-11-11T07:55:48.762Z,4.30
2022-11-11T07:56:47.753Z,4.48
2022-11-11T07:57:47.786Z,4.52
2022-11-11T07:58:47.739Z,4.45
2022-11-11T07:59:47.730Z,4.53
2022-11-11T08:00:47.816Z,4.68
2022-11-11T08:01:47.714Z,4.68
2022-11-11T08:02:47.742Z,4.70
2022-11-11T08:03:47.707Z,4.75
2022-11-11T08:04:52.361Z,4.74
2022-11-11T08:05:49.683Z,4.84
2022-11-11T08:06:47.703Z,4.84
2022-11-11T08:07:47.675Z,4.94
2022-11-11T08:08:47.682Z,4.94
2022-11-11T08:09:47.660Z,4.97
2022-11-11T08:10:47.721Z,5.07
2022-11-11T08:11:47.641Z,5.07
2022-11-11T08:12:47.638Z,5.04
2022-11-11T08:13:47.645Z,5.15
2022-11-11T08:14:47.617Z,5.15
2022-11-11T08:15:47.605Z,5.20
2022-11-11T08:16:47.606Z,5.20
2022-11-11T08:17:47.593Z,5.35
2022-11-11T08:18:47.607Z,5.38
2022-11-11T08:19:48.588Z,5.39
2022-11-11T08:20:53.584Z,5.38
2022-11-11T08:21:49.625Z,5.47
2022-11-11T08:23:14.810Z,5.47
2022-11-11T08:24:56.568Z,5.54
2022-11-11T08:25:02.861Z,5.62
2022-11-11T08:25:49.610Z,5.56
2022-11-11T08:26:47.527Z,5.65
2022-11-11T08:27:47.518Z,5.75
2022-11-11T08:28:47.533Z,5.82
2022-11-11T08:29:47.502Z,5.91
2022-11-11T08:30:47.501Z,5.87
2022-11-11T08:31:47.487Z,5.93
2022-11-11T08:33:00.509Z,5.98
2022-11-11T08:33:48.633Z,6.01
2022-11-11T08:34:47.479Z,5.98
2022-11-11T08:35:47.449Z,5.93
2022-11-11T08:36:47.446Z,5.91
2022-11-11T08:37:47.442Z,6.02
2022-11-11T08:38:47.458Z,6.05
2022-11-11T08:39:47.421Z,6.01
2022-11-11T08:40:47.406Z,5.86
2022-11-11T08:41:47.471Z,5.97
2022-11-11T08:42:47.396Z,5.94
2022-11-11T08:43:47.417Z,5.93
2022-11-11T08:44:47.385Z,5.91
2022-11-11T08:45:47.359Z,6.02
2022-11-11T08:46:48.388Z,5.89
2022-11-11T08:47:47.367Z,5.98
2022-11-11T08:48:47.371Z,6.01
2022-11-11T08:49:47.340Z,6.02
2022-11-11T08:50:47.343Z,6.09
2022-11-11T08:51:47.316Z,6.24
2022-11-11T08:52:48.318Z,6.24
2022-11-11T08:53:47.346Z,6.42
2022-11-11T08:54:48.311Z,6.51
2022-11-11T08:55:47.319Z,6.78
2022-11-11T08:56:47.291Z,6.87
2022-11-11T08:57:47.360Z,6.92
2022-11-11T08:58:47.317Z,6.87
2022-11-11T08:59:47.259Z,7.00
2022-11-11T09:00:47.313Z,7.03
2022-11-11T09:01:47.252Z,7.18
2022-11-11T09:02:47.241Z,7.32
2022-11-11T09:03:47.286Z,7.42
2022-11-11T09:04:51.534Z,7.43
2022-11-11T09:05:49.215Z,7.61
2022-11-11T09:06:47.261Z,7.69
2022-11-11T09:07:47.212Z,7.88
2022-11-11T09:08:47.219Z,7.90
2022-11-11T09:09:47.194Z,8.03
2022-11-11T09:10:47.191Z,8.08
2022-11-11T09:11:47.173Z,8.18
2022-11-11T09:12:47.163Z,8.30
2022-11-11T09:13:47.262Z,8.42
2022-11-11T09:14:47.153Z,8.42
2022-11-11T09:15:47.152Z,8.53
2022-11-11T09:16:47.130Z,8.69
2022-11-11T09:17:47.140Z,8.74
2022-11-11T09:18:47.187Z,8.94
2022-11-11T09:19:47.108Z,8.99
2022-11-11T09:20:47.102Z,8.95
2022-11-11T09:21:47.096Z,9.08
2022-11-11T09:22:47.103Z,9.08
2022-11-11T09:23:47.105Z,9.10
2022-11-11T09:24:47.091Z,9.04
2022-11-11T09:25:47.073Z,9.08
2022-11-11T09:26:47.059Z,8.91
2022-11-11T09:27:47.093Z,8.84
2022-11-11T09:28:47.075Z,8.78
2022-11-11T09:29:47.111Z,8.71
2022-11-11T09:30:47.031Z,8.63
2022-11-11T09:31:47.189Z,8.71
2022-11-11T09:32:47.020Z,8.73
2022-11-11T09:33:47.036Z,8.85
2022-11-11T09:34:47.033Z,8.87
2022-11-11T09:35:46.992Z,8.95
2022-11-11T09:36:46.991Z,9.08
2022-11-11T09:37:46.973Z,9.19
2022-11-11T09:38:47.001Z,9.28
2022-11-11T09:39:46.958Z,9.28
2022-11-11T09:40:46.950Z,9.39
2022-11-11T09:41:50.632Z,9.39
2022-11-11T09:42:47.932Z,9.48
2022-11-11T09:43:46.924Z,9.54
2022-11-11T09:44:48.411Z,9.48
2022-11-11T09:45:47.048Z,9.55
2022-11-11T09:46:46.915Z,9.62
2022-11-11T09:47:46.896Z,9.77
2022-11-11T09:48:46.892Z,9.87
2022-11-11T09:49:46.911Z,9.92
2022-11-11T09:50:46.878Z,10.09
2022-11-11T09:51:46.884Z,10.13
2022-11-11T09:52:46.862Z,10.30
2022-11-11T09:53:46.857Z,10.37
2022-11-11T09:54:46.879Z,10.48
2022-11-11T09:55:46.845Z,10.42
2022-11-11T09:56:46.831Z,10.57
2022-11-11T09:57:46.819Z,10.68
2022-11-11T09:58:46.811Z,10.71
2022-11-11T09:59:46.837Z,10.74
2022-11-11T10:00:46.852Z,10.87
2022-11-11T10:01:46.870Z,11.04
2022-11-11T10:02:46.795Z,11.10
2022-11-11T10:03:46.785Z,11.11
2022-11-11T10:04:46.795Z,11.30
2022-11-11T10:05:46.769Z,11.35
2022-11-11T10:06:46.788Z,11.36
2022-11-11T10:07:46.744Z,11.44
2022-11-11T10:08:46.732Z,11.52
2022-11-11T10:09:46.749Z,11.51
2022-11-11T10:10:46.721Z,11.60
2022-11-11T10:11:46.711Z,11.73
2022-11-11T10:12:46.703Z,11.69
2022-11-11T10:13:46.713Z,11.72
2022-11-11T10:14:46.717Z,11.73
2022-11-11T10:15:46.678Z,11.80
2022-11-11T10:16:46.670Z,11.78
2022-11-11T10:17:47.228Z,11.75
2022-11-11T10:18:46.660Z,11.80
2022-11-11T10:19:46.678Z,11.81
2022-11-11T10:20:46.653Z,11.90
2022-11-11T10:22:11.059Z,11.95
2022-11-11T10:22:48.619Z,11.84
2022-11-11T10:23:46.613Z,11.84
2022-11-11T10:24:50.774Z,11.90
2022-11-11T10:25:47.607Z,11.90
2022-11-11T10:26:46.585Z,11.91
2022-11-11T10:27:46.585Z,11.95
2022-11-11T10:28:46.574Z,12.06
2022-11-11T10:29:46.599Z,12.12
2022-11-11T10:30:47.574Z,12.13
2022-11-11T10:31:46.547Z,12.22
2022-11-11T10:32:46.551Z,12.31
2022-11-11T10:33:46.619Z,12.45
2022-11-11T10:34:46.561Z,12.47
2022-11-11T10:35:46.523Z,12.53
2022-11-11T10:36:46.514Z,12.68
2022-11-11T10:37:46.508Z,12.65
2022-11-11T10:38:46.508Z,12.64
2022-11-11T10:39:46.488Z,12.62
2022-11-11T10:40:46.504Z,12.70
2022-11-11T10:41:46.469Z,12.70
2022-11-11T10:42:46.469Z,12.85
2022-11-11T10:43:46.461Z,12.75
2022-11-11T10:44:46.455Z,12.83
2022-11-11T10:45:46.549Z,12.87
2022-11-11T10:46:46.439Z,12.95
2022-11-11T10:47:46.611Z,13.04
2022-11-11T10:48:47.158Z,13.15
2022-11-11T10:49:46.496Z,13.30
2022-11-11T10:50:46.438Z,13.28
2022-11-11T10:51:46.400Z,13.42
2022-11-11T10:52:46.400Z,13.39
2022-11-11T10:53:46.388Z,13.33
2022-11-11T10:54:46.369Z,13.31
2022-11-11T10:55:47.430Z,13.42
2022-11-11T10:56:46.364Z,13.47
2022-11-11T10:57:46.369Z,13.60
2022-11-11T10:58:46.351Z,13.47
2022-11-11T10:59:46.345Z,13.63
2022-11-11T11:00:46.434Z,13.68
2022-11-11T11:01:46.391Z,13.79
2022-11-11T11:02:46.322Z,13.81
2022-11-11T11:03:46.308Z,13.81
2022-11-11T11:04:46.309Z,13.83
2022-11-11T11:05:46.396Z,13.74
2022-11-11T11:06:46.313Z,13.89
2022-11-11T11:07:46.958Z,13.90
2022-11-11T11:08:46.276Z,13.92
2022-11-11T11:09:46.276Z,13.92
2022-11-11T11:10:46.285Z,14.05
2022-11-11T11:11:46.245Z,14.15
2022-11-11T11:12:46.498Z,14.07
2022-11-11T11:13:46.244Z,13.92
2022-11-11T11:14:46.229Z,13.89
2022-11-11T11:15:46.247Z,13.87
2022-11-11T11:16:46.226Z,13.86
2022-11-11T11:17:46.204Z,14.03
2022-11-11T11:18:46.196Z,14.08
2022-11-11T11:19:46.186Z,14.07
2022-11-11T11:20:46.212Z,14.00
2022-11-11T11:21:46.260Z,14.10
2022-11-11T11:22:46.179Z,14.18
2022-11-11T11:23:46.170Z,14.17
2022-11-11T11:24:46.148Z,14.40
2022-11-11T11:25:46.179Z,14.33
2022-11-11T11:26:46.138Z,14.44
2022-11-11T11:27:46.133Z,14.51
2022-11-11T11:28:46.124Z,14.45
2022-11-11T11:29:46.119Z,14.47
2022-11-11T11:30:46.149Z,14.53
2022-11-11T11:31:46.100Z,14.65
2022-11-11T11:32:46.088Z,14.62
2022-11-11T11:33:46.091Z,14.60
2022-11-11T11:34:46.635Z,14.59
2022-11-11T11:35:46.090Z,14.77
2022-11-11T11:36:46.064Z,14.73
2022-11-11T11:37:46.137Z,14.66
2022-11-11T11:38:46.047Z,14.68
2022-11-11T11:39:46.038Z,14.70
2022-11-11T11:40:46.062Z,14.72
2022-11-11T11:41:46.061Z,14.81
2022-11-11T11:42:46.027Z,14.72
2022-11-11T11:43:46.043Z,14.79
2022-11-11T11:44:46.005Z,14.78
2022-11-11T11:45:46.014Z,14.94
2022-11-11T11:46:47.002Z,14.92
2022-11-11T11:47:58.421Z,14.99
2022-11-11T11:48:48.344Z,14.94
2022-11-11T11:49:45.956Z,14.89
2022-11-11T11:50:45.959Z,14.92
2022-11-11T11:51:45.969Z,14.84
2022-11-11T11:52:45.940Z,14.92
2022-11-11T11:53:46.007Z,15.06
2022-11-11T11:54:45.910Z,15.09
2022-11-11T11:55:45.922Z,14.99
2022-11-11T11:56:45.933Z,15.06
2022-11-11T11:57:45.899Z,15.18
2022-11-11T11:58:45.894Z,15.24
2022-11-11T11:59:45.888Z,15.22
2022-11-11T12:00:45.874Z,15.25
2022-11-11T12:01:45.918Z,15.29
2022-11-11T12:02:45.929Z,15.40
2022-11-11T12:03:45.845Z,15.37
2022-11-11T12:04:45.845Z,15.37
2022-11-11T12:05:45.864Z,15.47
2022-11-11T12:06:45.909Z,15.42
2022-11-11T12:07:45.816Z,15.49
2022-11-11T12:08:45.801Z,15.47
2022-11-11T12:09:45.879Z,15.46
2022-11-11T12:10:45.838Z,15.37
2022-11-11T12:11:45.782Z,15.39
2022-11-11T12:12:45.770Z,15.29
2022-11-11T12:13:45.769Z,15.35
2022-11-11T12:14:45.771Z,15.37
2022-11-11T12:15:45.781Z,15.43
2022-11-11T12:16:45.753Z,15.51
2022-11-11T12:17:45.733Z,15.51
2022-11-11T12:18:45.744Z,15.58
2022-11-11T12:19:45.748Z,15.58
2022-11-11T12:20:45.753Z,15.65
2022-11-11T12:21:45.723Z,15.62
2022-11-11T12:22:45.780Z,15.55
2022-11-11T12:23:46.700Z,15.59
2022-11-11T12:24:45.675Z,15.62
2022-11-11T12:25:45.770Z,15.59
2022-11-11T12:26:45.668Z,15.68
2022-11-11T12:27:45.657Z,15.64
2022-11-11T12:28:45.653Z,15.65
2022-11-11T12:29:45.647Z,15.67
2022-11-11T12:30:45.666Z,15.62
2022-11-11T12:31:45.630Z,15.67
2022-11-11T12:32:48.766Z,15.65
2022-11-11T12:33:46.616Z,15.70
2022-11-11T12:34:45.615Z,15.62
2022-11-11T12:35:45.624Z,15.73
2022-11-11T12:36:45.593Z,15.61
2022-11-11T12:37:45.599Z,15.67
2022-11-11T12:38:45.586Z,15.68
2022-11-11T12:39:45.605Z,15.72
2022-11-11T12:40:45.556Z,15.64
2022-11-11T12:41:45.626Z,15.62
2022-11-11T12:42:45.550Z,15.57
2022-11-11T12:43:45.554Z,15.68
2022-11-11T12:44:46.804Z,15.73
2022-11-11T12:45:46.548Z,15.82
2022-11-11T12:46:45.522Z,15.68
2022-11-11T12:47:45.512Z,15.73
2022-11-11T12:48:45.511Z,15.73
2022-11-11T12:49:45.489Z,15.80
2022-11-11T12:50:45.494Z,15.73
2022-11-11T12:51:45.471Z,15.79
2022-11-11T12:52:45.465Z,15.75
2022-11-11T12:53:45.470Z,15.79
2022-11-11T12:54:45.453Z,15.73
2022-11-11T12:55:45.476Z,15.73
2022-11-11T12:56:45.435Z,15.62
2022-11-11T12:57:45.521Z,15.75
2022-11-11T12:58:45.420Z,15.67
2022-11-11T12:59:45.419Z,15.75
2022-11-11T13:00:45.436Z,15.68
2022-11-11T13:01:45.454Z,15.70
2022-11-11T13:02:45.400Z,15.77
2022-11-11T13:03:45.388Z,15.72
2022-11-11T13:04:45.374Z,15.77
2022-11-11T13:05:45.408Z,15.77
2022-11-11T13:06:45.390Z,15.67
2022-11-11T13:07:45.356Z,15.75
2022-11-11T13:08:45.343Z,15.77
2022-11-11T13:09:45.337Z,15.83
2022-11-11T13:10:45.353Z,15.75
2022-11-11T13:11:45.309Z,15.72
2022-11-11T13:12:46.314Z,15.77